sensor_id;sensor_type;location;lat;lon;timestamp;pressure;altitude;pressure_sealevel;temperature
64296;BMP280;51082;38.236;15.432;2023-04-23T00:00:14;101254.75;;;14.29
64296;BMP280;51082;38.236;15.432;2023-04-23T00:01:17;101253.97;;;14.28
64296;BMP280;51082;38.236;15.432;2023-04-23T00:02:20;101254.78;;;14.22
64296;BMP280;51082;38.236;15.432;2023-04-23T00:03:24;101256.00;;;14.26
64296;BMP280;51082;38.236;15.432;2023-04-23T00:04:29;101255.19;;;14.26
64296;BMP280;51082;38.236;15.432;2023-04-23T00:05:34;101248.16;;;14.26
64296;BMP280;51082;38.236;15.432;2023-04-23T00:06:37;101248.53;;;14.23
64296;BMP280;51082;38.236;15.432;2023-04-23T00:07:41;101254.41;;;14.25
64296;BMP280;51082;38.236;15.432;2023-04-23T00:08:44;101247.91;;;14.21
64296;BMP280;51082;38.236;15.432;2023-04-23T00:09:46;101243.50;;;14.22
64296;BMP280;51082;38.236;15.432;2023-04-23T00:10:52;101258.41;;;14.21
64296;BMP280;51082;38.236;15.432;2023-04-23T00:11:54;101245.50;;;14.20
64296;BMP280;51082;38.236;15.432;2023-04-23T00:12:58;101247.91;;;14.21
64296;BMP280;51082;38.236;15.432;2023-04-23T00:14:01;101249.53;;;14.22
64296;BMP280;51082;38.236;15.432;2023-04-23T00:15:06;101248.94;;;14.20
64296;BMP280;51082;38.236;15.432;2023-04-23T00:16:08;101242.69;;;14.21
64296;BMP280;51082;38.236;15.432;2023-04-23T00:17:12;101249.53;;;14.22
64296;BMP280;51082;38.236;15.432;2023-04-23T00:18:13;101251.56;;;14.27
64296;BMP280;51082;38.236;15.432;2023-04-23T00:19:17;101245.53;;;14.26
64296;BMP280;51082;38.236;15.432;2023-04-23T00:20:20;101250.78;;;14.26
64296;BMP280;51082;38.236;15.432;2023-04-23T00:21:24;101248.72;;;14.28
64296;BMP280;51082;38.236;15.432;2023-04-23T00:22:27;101250.34;;;14.29
64296;BMP280;51082;38.236;15.432;2023-04-23T00:23:30;101248.72;;;14.28
64296;BMP280;51082;38.236;15.432;2023-04-23T00:24:32;101250.78;;;14.26
64296;BMP280;51082;38.236;15.432;2023-04-23T00:25:36;101243.72;;;14.27
64296;BMP280;51082;38.236;15.432;2023-04-23T00:26:38;101240.88;;;14.28
64296;BMP280;51082;38.236;15.432;2023-04-23T00:27:41;101252.34;;;14.27
64296;BMP280;51082;38.236;15.432;2023-04-23T00:28:42;101244.91;;;14.24
64296;BMP280;51082;38.236;15.432;2023-04-23T00:29:45;101245.53;;;14.26
64296;BMP280;51082;38.236;15.432;2023-04-23T00:30:47;101243.47;;;14.28
64296;BMP280;51082;38.236;15.432;2023-04-23T00:31:50;101245.94;;;14.30
64296;BMP280;51082;38.236;15.432;2023-04-23T00:32:51;101237.06;;;14.31
64296;BMP280;51082;38.236;15.432;2023-04-23T00:33:54;101241.88;;;14.27
64296;BMP280;51082;38.236;15.432;2023-04-23T00:34:56;101240.28;;;14.26
64296;BMP280;51082;38.236;15.432;2023-04-23T00:36:00;101242.28;;;14.24
64296;BMP280;51082;38.236;15.432;2023-04-23T00:37:02;101241.06;;;14.20
64296;BMP280;51082;38.236;15.432;2023-04-23T00:38:06;101242.47;;;14.23
64296;BMP280;51082;38.236;15.432;2023-04-23T00:39:08;101241.06;;;14.20
64296;BMP280;51082;38.236;15.432;2023-04-23T00:40:11;101241.47;;;14.17
64296;BMP280;51082;38.236;15.432;2023-04-23T00:41:13;101238.06;;;14.17
64296;BMP280;51082;38.236;15.432;2023-04-23T00:42:17;101230.59;;;14.20
64296;BMP280;51082;38.236;15.432;2023-04-23T00:43:19;101243.47;;;14.15
64296;BMP280;51082;38.236;15.432;2023-04-23T00:44:22;101243.28;;;14.17
64296;BMP280;51082;38.236;15.432;2023-04-23T00:45:24;101239.06;;;14.22
64296;BMP280;51082;38.236;15.432;2023-04-23T00:46:27;101234.41;;;14.24
64296;BMP280;51082;38.236;15.432;2023-04-23T00:47:29;101244.28;;;14.22
64296;BMP280;51082;38.236;15.432;2023-04-23T00:48:32;101245.31;;;14.21
64296;BMP280;51082;38.236;15.432;2023-04-23T00:49:34;101239.47;;;14.19
64296;BMP280;51082;38.236;15.432;2023-04-23T00:50:37;101239.06;;;14.22
64296;BMP280;51082;38.236;15.432;2023-04-23T00:51:41;101241.47;;;14.24
64296;BMP280;51082;38.236;15.432;2023-04-23T00:52:44;101246.34;;;14.27
64296;BMP280;51082;38.236;15.432;2023-04-23T00:53:45;101239.47;;;14.32
64296;BMP280;51082;38.236;15.432;2023-04-23T00:54:49;101245.31;;;14.28
64296;BMP280;51082;38.236;15.432;2023-04-23T00:55:51;101250.94;;;14.18
64296;BMP280;51082;38.236;15.432;2023-04-23T00:56:54;101247.31;;;14.19
64296;BMP280;51082;38.236;15.432;2023-04-23T00:57:58;101247.50;;;14.24
64296;BMP280;51082;38.236;15.432;2023-04-23T00:59:00;101243.91;;;14.25
64296;BMP280;51082;38.236;15.432;2023-04-23T01:00:04;101250.94;;;14.25
64296;BMP280;51082;38.236;15.432;2023-04-23T01:01:08;101246.91;;;14.22
64296;BMP280;51082;38.236;15.432;2023-04-23T01:02:10;101243.72;;;14.27
64296;BMP280;51082;38.236;15.432;2023-04-23T01:03:14;101247.09;;;14.27
64296;BMP280;51082;38.236;15.432;2023-04-23T01:04:17;101246.72;;;14.24
64296;BMP280;51082;38.236;15.432;2023-04-23T01:05:21;101242.06;;;14.19
64296;BMP280;51082;38.236;15.432;2023-04-23T01:06:23;101251.78;;;14.25
64296;BMP280;51082;38.236;15.432;2023-04-23T01:07:30;101251.13;;;14.23
64296;BMP280;51082;38.236;15.432;2023-04-23T01:08:33;101253.97;;;14.22
64296;BMP280;51082;38.236;15.432;2023-04-23T01:09:36;101252.38;;;14.21
64296;BMP280;51082;38.236;15.432;2023-04-23T01:10:38;101245.09;;;14.16
64296;BMP280;51082;38.236;15.432;2023-04-23T01:11:42;101252.38;;;14.21
64296;BMP280;51082;38.236;15.432;2023-04-23T01:12:44;101249.16;;;14.25
64296;BMP280;51082;38.236;15.432;2023-04-23T01:13:47;101255.16;;;14.19
64296;BMP280;51082;38.236;15.432;2023-04-23T01:14:48;101243.50;;;14.22
64296;BMP280;51082;38.236;15.432;2023-04-23T01:15:51;101249.75;;;14.21
64296;BMP280;51082;38.236;15.432;2023-04-23T01:16:53;101253.16;;;14.21
64296;BMP280;51082;38.236;15.432;2023-04-23T01:17:57;101256.78;;;14.20
64296;BMP280;51082;38.236;15.432;2023-04-23T01:18:59;101247.50;;;14.24
64296;BMP280;51082;38.236;15.432;2023-04-23T01:20:03;101250.78;;;14.26
64296;BMP280;51082;38.236;15.432;2023-04-23T01:21:07;101251.34;;;14.28
64296;BMP280;51082;38.236;15.432;2023-04-23T01:22:12;101248.97;;;14.27
64296;BMP280;51082;38.236;15.432;2023-04-23T01:23:15;101252.75;;;14.24
64296;BMP280;51082;38.236;15.432;2023-04-23T01:24:18;101256.56;;;14.22
64296;BMP280;51082;38.236;15.432;2023-04-23T01:25:20;101245.72;;;14.18
64296;BMP280;51082;38.236;15.432;2023-04-23T01:26:23;101248.69;;;14.15
64296;BMP280;51082;38.236;15.432;2023-04-23T01:27:24;101246.06;;;14.15
64296;BMP280;51082;38.236;15.432;2023-04-23T01:28:28;101248.69;;;14.15
64296;BMP280;51082;38.236;15.432;2023-04-23T01:29:30;101235.22;;;14.18
64296;BMP280;51082;38.236;15.432;2023-04-23T01:30:34;101238.66;;;14.19
64296;BMP280;51082;38.236;15.432;2023-04-23T01:31:36;101247.91;;;14.21
64296;BMP280;51082;38.236;15.432;2023-04-23T01:32:39;101240.66;;;14.23
64296;BMP280;51082;38.236;15.432;2023-04-23T01:33:42;101247.91;;;14.21
64296;BMP280;51082;38.236;15.432;2023-04-23T01:34:46;101240.28;;;14.26
64296;BMP280;51082;38.236;15.432;2023-04-23T01:35:48;101247.91;;;14.21
64296;BMP280;51082;38.236;15.432;2023-04-23T01:36:51;101239.47;;;14.19
64296;BMP280;51082;38.236;15.432;2023-04-23T01:37:56;101246.06;;;14.15
64296;BMP280;51082;38.236;15.432;2023-04-23T01:39:00;101241.47;;;14.17
64296;BMP280;51082;38.236;15.432;2023-04-23T01:40:03;101238.84;;;14.17
64296;BMP280;51082;38.236;15.432;2023-04-23T01:41:06;101245.72;;;14.18
64296;BMP280;51082;38.236;15.432;2023-04-23T01:42:07;101236.25;;;14.17
64296;BMP280;51082;38.236;15.432;2023-04-23T01:43:11;101238.66;;;14.12
64296;BMP280;51082;38.236;15.432;2023-04-23T01:44:12;101234.03;;;14.14
64296;BMP280;51082;38.236;15.432;2023-04-23T01:45:15;101234.22;;;14.13
64296;BMP280;51082;38.236;15.432;2023-04-23T01:46:20;101227.75;;;14.15
64296;BMP280;51082;38.236;15.432;2023-04-23T01:47:22;101231.59;;;14.19
64296;BMP280;51082;38.236;15.432;2023-04-23T01:48:24;101237.84;;;14.18
64296;BMP280;51082;38.236;15.432;2023-04-23T01:49:27;101233.63;;;14.17
64296;BMP280;51082;38.236;15.432;2023-04-23T01:50:29;101236.84;;;14.19
64296;BMP280;51082;38.236;15.432;2023-04-23T01:51:34;101240.66;;;14.23
64296;BMP280;51082;38.236;15.432;2023-04-23T01:52:36;101236.84;;;14.19
64296;BMP280;51082;38.236;15.432;2023-04-23T01:53:40;101236.25;;;14.17
64296;BMP280;51082;38.236;15.432;2023-04-23T01:54:42;101238.22;;;14.15
64296;BMP280;51082;38.236;15.432;2023-04-23T01:55:46;101232.22;;;14.15
64296;BMP280;51082;38.236;15.432;2023-04-23T01:56:47;101234.41;;;14.11
64296;BMP280;51082;38.236;15.432;2023-04-23T01:57:54;101233.41;;;14.12
64296;BMP280;51082;38.236;15.432;2023-04-23T01:58:56;101229.16;;;14.11
64296;BMP280;51082;38.236;15.432;2023-04-23T02:00:02;101226.53;;;14.11
64296;BMP280;51082;38.236;15.432;2023-04-23T02:01:08;101230.16;;;14.10
64296;BMP280;51082;38.236;15.432;2023-04-23T02:02:10;101234.22;;;14.13
64296;BMP280;51082;38.236;15.432;2023-04-23T02:03:13;101234.84;;;14.08
64296;BMP280;51082;38.236;15.432;2023-04-23T02:04:17;101227.75;;;14.02
64296;BMP280;51082;38.236;15.432;2023-04-23T02:05:19;101223.09;;;13.97
64296;BMP280;51082;38.236;15.432;2023-04-23T02:06:22;101223.09;;;13.97
64296;BMP280;51082;38.236;15.432;2023-04-23T02:07:24;101220.31;;;13.99
64296;BMP280;51082;38.236;15.432;2023-04-23T02:08:27;101216.03;;;13.98
64296;BMP280;51082;38.236;15.432;2023-04-23T02:09:30;101215.06;;;13.99
64296;BMP280;51082;38.236;15.432;2023-04-23T02:10:33;101219.28;;;14.00
64296;BMP280;51082;38.236;15.432;2023-04-23T02:11:35;101219.66;;;13.97
64296;BMP280;51082;38.236;15.432;2023-04-23T02:12:38;101212.25;;;13.94
64296;BMP280;51082;38.236;15.432;2023-04-23T02:13:40;101211.25;;;13.95
64296;BMP280;51082;38.236;15.432;2023-04-23T02:14:42;101215.06;;;13.99
64296;BMP280;51082;38.236;15.432;2023-04-23T02:15:44;101213.66;;;14.03
64296;BMP280;51082;38.236;15.432;2023-04-23T02:16:47;101215.47;;;14.02
64296;BMP280;51082;38.236;15.432;2023-04-23T02:17:50;101216.28;;;14.03
64296;BMP280;51082;38.236;15.432;2023-04-23T02:18:53;101208.81;;;14.00
64296;BMP280;51082;38.236;15.432;2023-04-23T02:19:55;101220.47;;;13.97
64296;BMP280;51082;38.236;15.432;2023-04-23T02:20:57;101209.63;;;13.94
64296;BMP280;51082;38.236;15.432;2023-04-23T02:21:59;101211.25;;;13.95
64296;BMP280;51082;38.236;15.432;2023-04-23T02:23:03;101205.00;;;13.96
64296;BMP280;51082;38.236;15.432;2023-04-23T02:24:05;101212.84;;;13.96
64296;BMP280;51082;38.236;15.432;2023-04-23T02:25:09;101206.81;;;13.95
64296;BMP280;51082;38.236;15.432;2023-04-23T02:26:11;101203.19;;;13.96
64296;BMP280;51082;38.236;15.432;2023-04-23T02:27:14;101220.09;;;13.94
64296;BMP280;51082;38.236;15.432;2023-04-23T02:28:16;101217.06;;;13.97
64296;BMP280;51082;38.236;15.432;2023-04-23T02:29:19;101222.13;;;13.98
64296;BMP280;51082;38.236;15.432;2023-04-23T02:30:21;101215.25;;;13.97
64296;BMP280;51082;38.236;15.432;2023-04-23T02:31:25;101217.06;;;13.97
64296;BMP280;51082;38.236;15.432;2023-04-23T02:32:27;101215.25;;;13.97
64296;BMP280;51082;38.236;15.432;2023-04-23T02:33:30;101209.84;;;13.99
64296;BMP280;51082;38.236;15.432;2023-04-23T02:34:32;101221.28;;;13.98
64296;BMP280;51082;38.236;15.432;2023-04-23T02:35:35;101216.88;;;13.98
64296;BMP280;51082;38.236;15.432;2023-04-23T02:36:37;101220.91;;;14.01
64296;BMP280;51082;38.236;15.432;2023-04-23T02:37:40;101218.09;;;14.02
64296;BMP280;51082;38.236;15.432;2023-04-23T02:38:41;101225.94;;;14.02
64296;BMP280;51082;38.236;15.432;2023-04-23T02:39:45;101225.13;;;14.02
64296;BMP280;51082;38.236;15.432;2023-04-23T02:40:48;101220.91;;;14.01
64296;BMP280;51082;38.236;15.432;2023-04-23T02:41:51;101223.72;;;13.99
64296;BMP280;51082;38.236;15.432;2023-04-23T02:42:53;101223.31;;;13.96
64296;BMP280;51082;38.236;15.432;2023-04-23T02:43:56;101224.31;;;13.95
64296;BMP280;51082;38.236;15.432;2023-04-23T02:44:57;101227.31;;;13.92
64296;BMP280;51082;38.236;15.432;2023-04-23T02:46:01;101226.91;;;13.88
64296;BMP280;51082;38.236;15.432;2023-04-23T02:47:08;101221.47;;;13.83
64296;BMP280;51082;38.236;15.432;2023-04-23T02:48:11;101224.47;;;13.80
64296;BMP280;51082;38.236;15.432;2023-04-23T02:49:12;101221.03;;;13.79
64296;BMP280;51082;38.236;15.432;2023-04-23T02:50:15;101226.69;;;13.76
64296;BMP280;51082;38.236;15.432;2023-04-23T02:51:17;101225.47;;;13.72
64296;BMP280;51082;38.236;15.432;2023-04-23T02:52:19;101221.22;;;13.71
64296;BMP280;51082;38.236;15.432;2023-04-23T02:53:21;101220.03;;;13.74
64296;BMP280;51082;38.236;15.432;2023-04-23T02:54:25;101222.44;;;13.75
64296;BMP280;51082;38.236;15.432;2023-04-23T02:55:26;101221.47;;;13.76
64296;BMP280;51082;38.236;15.432;2023-04-23T02:56:31;101226.69;;;13.76
64296;BMP280;51082;38.236;15.432;2023-04-23T02:57:33;101224.44;;;13.73
64296;BMP280;51082;38.236;15.432;2023-04-23T02:58:35;101224.66;;;13.78
64296;BMP280;51082;38.236;15.432;2023-04-23T02:59:37;101226.06;;;13.74
64296;BMP280;51082;38.236;15.432;2023-04-23T03:00:40;101225.47;;;13.72
64296;BMP280;51082;38.236;15.432;2023-04-23T03:01:41;101227.47;;;13.70
64296;BMP280;51082;38.236;15.432;2023-04-23T03:02:44;101225.84;;;13.69
64296;BMP280;51082;38.236;15.432;2023-04-23T03:03:46;101225.25;;;13.67
64296;BMP280;51082;38.236;15.432;2023-04-23T03:04:49;101222.22;;;13.64
64296;BMP280;51082;38.236;15.432;2023-04-23T03:05:51;101224.19;;;13.62
64296;BMP280;51082;38.236;15.432;2023-04-23T03:06:54;101222.44;;;13.62
64296;BMP280;51082;38.236;15.432;2023-04-23T03:07:56;101220.41;;;13.64
64296;BMP280;51082;38.236;15.432;2023-04-23T03:08:59;101214.75;;;13.61
64296;BMP280;51082;38.236;15.432;2023-04-23T03:10:01;101222.00;;;13.59
64296;BMP280;51082;38.236;15.432;2023-04-23T03:11:04;101217.56;;;13.59
64296;BMP280;51082;38.236;15.432;2023-04-23T03:12:07;101223.81;;;13.58
64296;BMP280;51082;38.236;15.432;2023-04-23T03:13:10;101224.59;;;13.59
64296;BMP280;51082;38.236;15.432;2023-04-23T03:14:11;101214.53;;;13.56
64296;BMP280;51082;38.236;15.432;2023-04-23T03:15:14;101221.22;;;13.58
64296;BMP280;51082;38.236;15.432;2023-04-23T03:16:16;101223.59;;;13.60
64296;BMP280;51082;38.236;15.432;2023-04-23T03:17:19;101225.81;;;13.56
64296;BMP280;51082;38.236;15.432;2023-04-23T03:18:20;101217.16;;;13.56
64296;BMP280;51082;38.236;15.432;2023-04-23T03:19:23;101227.19;;;13.52
64296;BMP280;51082;38.236;15.432;2023-04-23T03:20:25;101218.75;;;13.50
64296;BMP280;51082;38.236;15.432;2023-04-23T03:21:27;101221.16;;;13.52
64296;BMP280;51082;38.236;15.432;2023-04-23T03:22:29;101217.50;;;13.53
64296;BMP280;51082;38.236;15.432;2023-04-23T03:23:32;101215.94;;;13.52
64296;BMP280;51082;38.236;15.432;2023-04-23T03:24:33;101217.13;;;13.49
64296;BMP280;51082;38.236;15.432;2023-04-23T03:25:36;101219.13;;;13.47
64296;BMP280;51082;38.236;15.432;2023-04-23T03:26:38;101224.75;;;13.44
64296;BMP280;51082;38.236;15.432;2023-04-23T03:27:42;101221.50;;;13.42
64296;BMP280;51082;38.236;15.432;2023-04-23T03:28:44;101226.56;;;13.43
64296;BMP280;51082;38.236;15.432;2023-04-23T03:29:47;101220.50;;;13.43
64296;BMP280;51082;38.236;15.432;2023-04-23T03:30:49;101217.91;;;13.43
64296;BMP280;51082;38.236;15.432;2023-04-23T03:31:52;101222.53;;;13.41
64296;BMP280;51082;38.236;15.432;2023-04-23T03:32:55;101217.06;;;13.36
64296;BMP280;51082;38.236;15.432;2023-04-23T03:33:58;101214.06;;;13.39
64296;BMP280;51082;38.236;15.432;2023-04-23T03:35:00;101220.50;;;13.36
64296;BMP280;51082;38.236;15.432;2023-04-23T03:36:03;101219.03;;;13.34
64296;BMP280;51082;38.236;15.432;2023-04-23T03:37:06;101215.06;;;13.31
64296;BMP280;51082;38.236;15.432;2023-04-23T03:38:08;101220.66;;;13.28
64296;BMP280;51082;38.236;15.432;2023-04-23T03:39:11;101215.41;;;13.28
64296;BMP280;51082;38.236;15.432;2023-04-23T03:40:13;101215.84;;;13.32
64296;BMP280;51082;38.236;15.432;2023-04-23T03:41:16;101217.44;;;13.33
64296;BMP280;51082;38.236;15.432;2023-04-23T03:42:17;101223.06;;;13.30
64296;BMP280;51082;38.236;15.432;2023-04-23T03:43:22;101225.06;;;13.28
64296;BMP280;51082;38.236;15.432;2023-04-23T03:44:24;101223.44;;;13.27
64296;BMP280;51082;38.236;15.432;2023-04-23T03:45:29;101222.03;;;13.24
64296;BMP280;51082;38.236;15.432;2023-04-23T03:46:31;101232.28;;;13.26
64296;BMP280;51082;38.236;15.432;2023-04-23T03:47:34;101222.63;;;13.26
64296;BMP280;51082;38.236;15.432;2023-04-23T03:48:36;101222.84;;;13.25
64296;BMP280;51082;38.236;15.432;2023-04-23T03:49:39;101223.44;;;13.27
64296;BMP280;51082;38.236;15.432;2023-04-23T03:50:41;101220.84;;;13.27
64296;BMP280;51082;38.236;15.432;2023-04-23T03:51:43;101220.00;;;13.26
64296;BMP280;51082;38.236;15.432;2023-04-23T03:52:45;101221.03;;;13.25
64296;BMP280;51082;38.236;15.432;2023-04-23T03:53:48;101217.38;;;13.26
64296;BMP280;51082;38.236;15.432;2023-04-23T03:54:50;101223.44;;;13.27
64296;BMP280;51082;38.236;15.432;2023-04-23T03:55:52;101228.69;;;13.27
64296;BMP280;51082;38.236;15.432;2023-04-23T03:56:54;101232.28;;;13.26
64296;BMP280;51082;38.236;15.432;2023-04-23T03:57:58;101225.47;;;13.25
64296;BMP280;51082;38.236;15.432;2023-04-23T03:59:03;101223.44;;;13.27
64296;BMP280;51082;38.236;15.432;2023-04-23T04:00:07;101217.63;;;13.25
64296;BMP280;51082;38.236;15.432;2023-04-23T04:01:11;101228.44;;;13.22
64296;BMP280;51082;38.236;15.432;2023-04-23T04:02:14;101221.59;;;13.21
64296;BMP280;51082;38.236;15.432;2023-04-23T04:03:16;101218.63;;;13.24
64296;BMP280;51082;38.236;15.432;2023-04-23T04:04:19;101223.84;;;13.24
64296;BMP280;51082;38.236;15.432;2023-04-23T04:05:21;101214.56;;;13.21
64296;BMP280;51082;38.236;15.432;2023-04-23T04:06:24;101228.44;;;13.22
64296;BMP280;51082;38.236;15.432;2023-04-23T04:07:25;101218.97;;;13.21
64296;BMP280;51082;38.236;15.432;2023-04-23T04:08:28;101219.22;;;13.19
64296;BMP280;51082;38.236;15.432;2023-04-23T04:09:30;101220.00;;;13.20
64296;BMP280;51082;38.236;15.432;2023-04-23T04:10:33;101222.63;;;13.20
64296;BMP280;51082;38.236;15.432;2023-04-23T04:11:34;101214.97;;;13.18
64296;BMP280;51082;38.236;15.432;2023-04-23T04:12:37;101221.00;;;13.18
64296;BMP280;51082;38.236;15.432;2023-04-23T04:13:39;101218.97;;;13.21
64296;BMP280;51082;38.236;15.432;2023-04-23T04:14:44;101222.22;;;13.23
64296;BMP280;51082;38.236;15.432;2023-04-23T04:15:46;101217.00;;;13.23
64296;BMP280;51082;38.236;15.432;2023-04-23T04:16:49;101224.03;;;13.22
64296;BMP280;51082;38.236;15.432;2023-04-23T04:17:50;101214.19;;;13.24
64296;BMP280;51082;38.236;15.432;2023-04-23T04:18:53;101222.41;;;13.21
64296;BMP280;51082;38.236;15.432;2023-04-23T04:19:55;101217.97;;;13.22
64296;BMP280;51082;38.236;15.432;2023-04-23T04:20:58;101217.00;;;13.23
64296;BMP280;51082;38.236;15.432;2023-04-23T04:22:00;101211.38;;;13.26
64296;BMP280;51082;38.236;15.432;2023-04-23T04:23:03;101213.00;;;13.27
64296;BMP280;51082;38.236;15.432;2023-04-23T04:24:05;101223.44;;;13.27
64296;BMP280;51082;38.236;15.432;2023-04-23T04:25:08;101221.84;;;13.26
64296;BMP280;51082;38.236;15.432;2023-04-23T04:26:10;101212.81;;;13.28
64296;BMP280;51082;38.236;15.432;2023-04-23T04:27:13;101226.69;;;13.29
64296;BMP280;51082;38.236;15.432;2023-04-23T04:28:15;101227.06;;;13.26
64296;BMP280;51082;38.236;15.432;2023-04-23T04:29:18;101220.59;;;13.22
64296;BMP280;51082;38.236;15.432;2023-04-23T04:30:23;101218.16;;;13.20
64296;BMP280;51082;38.236;15.432;2023-04-23T04:31:27;101215.38;;;13.22
64296;BMP280;51082;38.236;15.432;2023-04-23T04:32:28;101220.44;;;13.23
64296;BMP280;51082;38.236;15.432;2023-04-23T04:33:31;101224.25;;;13.27
64296;BMP280;51082;38.236;15.432;2023-04-23T04:34:33;101218.22;;;13.27
64296;BMP280;51082;38.236;15.432;2023-04-23T04:35:36;101216.28;;;13.35
64296;BMP280;51082;38.236;15.432;2023-04-23T04:36:37;101228.69;;;13.33
64296;BMP280;51082;38.236;15.432;2023-04-23T04:37:41;101219.84;;;13.34
64296;BMP280;51082;38.236;15.432;2023-04-23T04:38:44;101232.38;;;13.39
64296;BMP280;51082;38.236;15.432;2023-04-23T04:39:47;101224.75;;;13.44
64296;BMP280;51082;38.236;15.432;2023-04-23T04:40:48;101230.38;;;13.41
64296;BMP280;51082;38.236;15.432;2023-04-23T04:41:51;101234.78;;;13.40
64296;BMP280;51082;38.236;15.432;2023-04-23T04:42:54;101232.16;;;13.40
64296;BMP280;51082;38.236;15.432;2023-04-23T04:43:57;101225.75;;;13.43
64296;BMP280;51082;38.236;15.432;2023-04-23T04:44:59;101231.16;;;13.41
64296;BMP280;51082;38.236;15.432;2023-04-23T04:46:03;101226.13;;;13.40
64296;BMP280;51082;38.236;15.432;2023-04-23T04:47:05;101235.25;;;13.51
64296;BMP280;51082;38.236;15.432;2023-04-23T04:48:08;101239.66;;;13.50
64296;BMP280;51082;38.236;15.432;2023-04-23T04:49:10;101239.22;;;13.46
64296;BMP280;51082;38.236;15.432;2023-04-23T04:50:12;101242.06;;;13.45
64296;BMP280;51082;38.236;15.432;2023-04-23T04:51:14;101250.69;;;13.45
64296;BMP280;51082;38.236;15.432;2023-04-23T04:52:17;101244.91;;;13.50
64296;BMP280;51082;38.236;15.432;2023-04-23T04:53:20;101248.34;;;13.57
64296;BMP280;51082;38.236;15.432;2023-04-23T04:54:22;101251.75;;;13.51
64296;BMP280;51082;38.236;15.432;2023-04-23T04:55:24;101247.69;;;13.48
64296;BMP280;51082;38.236;15.432;2023-04-23T04:56:27;101259.78;;;13.50
64296;BMP280;51082;38.236;15.432;2023-04-23T04:57:29;101250.53;;;13.54
64296;BMP280;51082;38.236;15.432;2023-04-23T04:58:32;101253.75;;;13.56
64296;BMP280;51082;38.236;15.432;2023-04-23T04:59:33;101252.97;;;13.55
64296;BMP280;51082;38.236;15.432;2023-04-23T05:00:36;101263.06;;;13.58
64296;BMP280;51082;38.236;15.432;2023-04-23T05:01:40;101257.03;;;13.58
64296;BMP280;51082;38.236;15.432;2023-04-23T05:02:42;101259.41;;;13.59
64296;BMP280;51082;38.236;15.432;2023-04-23T05:03:44;101257.81;;;13.58
64296;BMP280;51082;38.236;15.432;2023-04-23T05:04:47;101270.47;;;13.61
64296;BMP280;51082;38.236;15.432;2023-04-23T05:05:50;101273.09;;;13.61
64296;BMP280;51082;38.236;15.432;2023-04-23T05:06:52;101266.47;;;13.65
64296;BMP280;51082;38.236;15.432;2023-04-23T05:07:55;101270.53;;;13.68
64296;BMP280;51082;38.236;15.432;2023-04-23T05:08:59;101272.34;;;13.67
64296;BMP280;51082;38.236;15.432;2023-04-23T05:10:02;101269.53;;;13.69
64296;BMP280;51082;38.236;15.432;2023-04-23T05:11:04;101272.75;;;13.71
64296;BMP280;51082;38.236;15.432;2023-04-23T05:12:06;101276.78;;;13.73
64296;BMP280;51082;38.236;15.432;2023-04-23T05:13:08;101281.81;;;13.75
64296;BMP280;51082;38.236;15.432;2023-04-23T05:14:11;101278.00;;;13.77
64296;BMP280;51082;38.236;15.432;2023-04-23T05:15:13;101275.97;;;13.79
64296;BMP280;51082;38.236;15.432;2023-04-23T05:16:15;101280.44;;;13.86
64296;BMP280;51082;38.236;15.432;2023-04-23T05:17:19;101281.47;;;13.91
64296;BMP280;51082;38.236;15.432;2023-04-23T05:18:21;101279.28;;;13.95
64296;BMP280;51082;38.236;15.432;2023-04-23T05:19:24;101280.28;;;13.94
64296;BMP280;51082;38.236;15.432;2023-04-23T05:20:26;101282.47;;;13.97
64296;BMP280;51082;38.236;15.432;2023-04-23T05:21:29;101288.16;;;14.00
64296;BMP280;51082;38.236;15.432;2023-04-23T05:22:31;101288.56;;;14.04
64296;BMP280;51082;38.236;15.432;2023-04-23T05:23:34;101288.38;;;14.05
64296;BMP280;51082;38.236;15.432;2023-04-23T05:24:36;101290.59;;;14.08
64296;BMP280;51082;38.236;15.432;2023-04-23T05:25:39;101294.59;;;14.11
64296;BMP280;51082;38.236;15.432;2023-04-23T05:26:41;101290.59;;;14.15
64296;BMP280;51082;38.236;15.432;2023-04-23T05:27:44;101287.59;;;14.18
64296;BMP280;51082;38.236;15.432;2023-04-23T05:28:45;101295.06;;;14.21
64296;BMP280;51082;38.236;15.432;2023-04-23T05:29:48;101295.28;;;14.26
64296;BMP280;51082;38.236;15.432;2023-04-23T05:30:50;101299.47;;;14.27
64296;BMP280;51082;38.236;15.432;2023-04-23T05:31:53;101304.53;;;14.35
64296;BMP280;51082;38.236;15.432;2023-04-23T05:32:56;101303.53;;;14.36
64296;BMP280;51082;38.236;15.432;2023-04-23T05:33:59;101303.75;;;14.42
64296;BMP280;51082;38.236;15.432;2023-04-23T05:35:03;101303.94;;;14.47
64296;BMP280;51082;38.236;15.432;2023-04-23T05:36:05;101305.19;;;14.51
64296;BMP280;51082;38.236;15.432;2023-04-23T05:37:08;101296.28;;;14.52
64296;BMP280;51082;38.236;15.432;2023-04-23T05:38:10;101314.03;;;14.56
64296;BMP280;51082;38.236;15.432;2023-04-23T05:39:13;101303.97;;;14.60
64296;BMP280;51082;38.236;15.432;2023-04-23T05:40:14;101305.16;;;14.64
64296;BMP280;51082;38.236;15.432;2023-04-23T05:41:17;101313.66;;;14.66
64296;BMP280;51082;38.236;15.432;2023-04-23T05:42:18;101312.66;;;14.67
64296;BMP280;51082;38.236;15.432;2023-04-23T05:43:21;101311.22;;;14.71
64296;BMP280;51082;38.236;15.432;2023-04-23T05:44:23;101310.41;;;14.77
64296;BMP280;51082;38.236;15.432;2023-04-23T05:45:26;101318.47;;;14.82
64296;BMP280;51082;38.236;15.432;2023-04-23T05:46:27;101310.44;;;14.84
64296;BMP280;51082;38.236;15.432;2023-04-23T05:47:30;101311.63;;;14.88
64296;BMP280;51082;38.236;15.432;2023-04-23T05:48:33;101313.69;;;14.92
64296;BMP280;51082;38.236;15.432;2023-04-23T05:49:36;101316.50;;;14.97
64296;BMP280;51082;38.236;15.432;2023-04-23T05:50:38;101315.06;;;15.02